sensor_id;sensor_type;location;lat;lon;timestamp;P1;durP1;ratioP1;P2;durP2;ratioP2
77214;SDS011;66210;53.282;9.864;2023-03-19T00:02:02;2.78;;;1.95;;
77214;SDS011;66210;53.282;9.864;2023-03-19T00:04:42;4.80;;;2.28;;
77214;SDS011;66210;53.282;9.864;2023-03-19T00:07:09;2.97;;;2.08;;
77214;SDS011;66210;53.282;9.864;2023-03-19T00:09:36;3.40;;;2.00;;
77214;SDS011;66210;53.282;9.864;2023-03-19T00:12:03;4.05;;;1.98;;
77214;SDS011;66210;53.282;9.864;2023-03-19T00:14:31;2.17;;;1.70;;
77214;SDS011;66210;53.282;9.864;2023-03-19T00:16:58;2.10;;;1.70;;
77214;SDS011;66210;53.282;9.864;2023-03-19T00:19:24;2.20;;;1.70;;
77214;SDS011;66210;53.282;9.864;2023-03-19T00:21:51;2.28;;;1.80;;
77214;SDS011;66210;53.282;9.864;2023-03-19T00:24:18;2.00;;;1.60;;
77214;SDS011;66210;53.282;9.864;2023-03-19T00:26:46;2.78;;;1.70;;
77214;SDS011;66210;53.282;9.864;2023-03-19T00:29:13;1.63;;;1.50;;
77214;SDS011;66210;53.282;9.864;2023-03-19T00:31:40;2.03;;;1.50;;
77214;SDS011;66210;53.282;9.864;2023-03-19T00:34:07;2.90;;;1.63;;
77214;SDS011;66210;53.282;9.864;2023-03-19T00:36:35;3.67;;;1.60;;
77214;SDS011;66210;53.282;9.864;2023-03-19T00:39:02;2.92;;;1.60;;
77214;SDS011;66210;53.282;9.864;2023-03-19T00:41:29;1.52;;;1.42;;
77214;SDS011;66210;53.282;9.864;2023-03-19T00:43:57;2.10;;;1.52;;
77214;SDS011;66210;53.282;9.864;2023-03-19T00:46:24;2.25;;;1.33;;
77214;SDS011;66210;53.282;9.864;2023-03-19T00:48:51;1.50;;;1.40;;
77214;SDS011;66210;53.282;9.864;2023-03-19T00:51:21;2.17;;;1.60;;
77214;SDS011;66210;53.282;9.864;2023-03-19T00:53:49;3.58;;;1.50;;
77214;SDS011;66210;53.282;9.864;2023-03-19T00:56:16;2.25;;;1.42;;
77214;SDS011;66210;53.282;9.864;2023-03-19T00:58:44;2.42;;;1.80;;
77214;SDS011;66210;53.282;9.864;2023-03-19T01:01:12;2.58;;;1.70;;
77214;SDS011;66210;53.282;9.864;2023-03-19T01:03:41;1.70;;;1.40;;
77214;SDS011;66210;53.282;9.864;2023-03-19T01:06:08;2.58;;;1.60;;
77214;SDS011;66210;53.282;9.864;2023-03-19T01:08:35;1.48;;;1.38;;
77214;SDS011;66210;53.282;9.864;2023-03-19T01:11:12;2.60;;;1.60;;
77214;SDS011;66210;53.282;9.864;2023-03-19T01:13:40;5.40;;;1.63;;
77214;SDS011;66210;53.282;9.864;2023-03-19T01:16:08;2.45;;;1.70;;
77214;SDS011;66210;53.282;9.864;2023-03-19T01:18:36;2.03;;;1.40;;
77214;SDS011;66210;53.282;9.864;2023-03-19T01:21:02;1.67;;;1.50;;
77214;SDS011;66210;53.282;9.864;2023-03-19T01:23:29;1.85;;;1.50;;
77214;SDS011;66210;53.282;9.864;2023-03-19T01:25:56;2.97;;;1.58;;
77214;SDS011;66210;53.282;9.864;2023-03-19T01:28:23;2.33;;;1.60;;
77214;SDS011;66210;53.282;9.864;2023-03-19T01:30:50;1.63;;;1.45;;
77214;SDS011;66210;53.282;9.864;2023-03-19T01:33:17;2.88;;;1.73;;
77214;SDS011;66210;53.282;9.864;2023-03-19T01:35:46;2.50;;;1.55;;
77214;SDS011;66210;53.282;9.864;2023-03-19T01:38:16;1.48;;;1.38;;
77214;SDS011;66210;53.282;9.864;2023-03-19T01:40:44;4.50;;;1.80;;
77214;SDS011;66210;53.282;9.864;2023-03-19T01:45:47;1.92;;;1.38;;
77214;SDS011;66210;53.282;9.864;2023-03-19T01:50:57;1.55;;;1.45;;
77214;SDS011;66210;53.282;9.864;2023-03-19T01:53:26;2.28;;;1.35;;
77214;SDS011;66210;53.282;9.864;2023-03-19T01:55:58;3.10;;;1.70;;
77214;SDS011;66210;53.282;9.864;2023-03-19T01:58:30;4.93;;;1.52;;
77214;SDS011;66210;53.282;9.864;2023-03-19T02:00:56;1.58;;;1.48;;
77214;SDS011;66210;53.282;9.864;2023-03-19T02:03:24;2.22;;;1.30;;
77214;SDS011;66210;53.282;9.864;2023-03-19T02:05:52;2.92;;;1.50;;
77214;SDS011;66210;53.282;9.864;2023-03-19T02:08:21;1.75;;;1.40;;
77214;SDS011;66210;53.282;9.864;2023-03-19T02:10:50;1.25;;;1.15;;
77214;SDS011;66210;53.282;9.864;2023-03-19T02:13:19;1.58;;;1.38;;
77214;SDS011;66210;53.282;9.864;2023-03-19T02:15:46;2.28;;;1.88;;
77214;SDS011;66210;53.282;9.864;2023-03-19T02:18:12;1.65;;;1.42;;
77214;SDS011;66210;53.282;9.864;2023-03-19T02:20:47;1.40;;;1.20;;
77214;SDS011;66210;53.282;9.864;2023-03-19T02:29:07;2.53;;;1.60;;
77214;SDS011;66210;53.282;9.864;2023-03-19T02:31:35;1.67;;;1.50;;
77214;SDS011;66210;53.282;9.864;2023-03-19T02:34:03;3.17;;;1.60;;
77214;SDS011;66210;53.282;9.864;2023-03-19T02:36:48;1.90;;;1.60;;
77214;SDS011;66210;53.282;9.864;2023-03-19T02:39:19;3.58;;;1.42;;
77214;SDS011;66210;53.282;9.864;2023-03-19T02:41:52;2.13;;;1.45;;
77214;SDS011;66210;53.282;9.864;2023-03-19T02:44:21;3.70;;;1.50;;
77214;SDS011;66210;53.282;9.864;2023-03-19T02:46:47;1.42;;;1.20;;
77214;SDS011;66210;53.282;9.864;2023-03-19T02:49:14;1.42;;;1.33;;
77214;SDS011;66210;53.282;9.864;2023-03-19T02:51:41;2.05;;;1.45;;
77214;SDS011;66210;53.282;9.864;2023-03-19T02:54:07;1.77;;;1.58;;
77214;SDS011;66210;53.282;9.864;2023-03-19T02:56:34;1.88;;;1.40;;
77214;SDS011;66210;53.282;9.864;2023-03-19T02:59:01;4.00;;;1.42;;
77214;SDS011;66210;53.282;9.864;2023-03-19T03:01:28;1.50;;;1.40;;
77214;SDS011;66210;53.282;9.864;2023-03-19T03:03:55;1.40;;;1.30;;
77214;SDS011;66210;53.282;9.864;2023-03-19T03:06:22;1.30;;;1.13;;
77214;SDS011;66210;53.282;9.864;2023-03-19T03:08:48;1.60;;;1.40;;
77214;SDS011;66210;53.282;9.864;2023-03-19T03:11:15;1.63;;;1.30;;
77214;SDS011;66210;53.282;9.864;2023-03-19T03:13:42;4.28;;;1.73;;
77214;SDS011;66210;53.282;9.864;2023-03-19T03:16:09;1.40;;;1.30;;
77214;SDS011;66210;53.282;9.864;2023-03-19T03:18:36;3.03;;;1.40;;
77214;SDS011;66210;53.282;9.864;2023-03-19T03:21:03;1.73;;;1.20;;
77214;SDS011;66210;53.282;9.864;2023-03-19T03:23:29;3.47;;;1.70;;
77214;SDS011;66210;53.282;9.864;2023-03-19T03:25:56;2.10;;;1.30;;
77214;SDS011;66210;53.282;9.864;2023-03-19T03:28:23;2.30;;;1.48;;
77214;SDS011;66210;53.282;9.864;2023-03-19T03:30:50;1.95;;;1.70;;
77214;SDS011;66210;53.282;9.864;2023-03-19T03:33:17;1.80;;;1.40;;
77214;SDS011;66210;53.282;9.864;2023-03-19T03:35:43;1.80;;;1.52;;
77214;SDS011;66210;53.282;9.864;2023-03-19T03:38:10;1.73;;;1.42;;
77214;SDS011;66210;53.282;9.864;2023-03-19T03:40:38;3.60;;;1.60;;
77214;SDS011;66210;53.282;9.864;2023-03-19T03:43:04;2.38;;;1.55;;
77214;SDS011;66210;53.282;9.864;2023-03-19T03:45:31;2.78;;;1.60;;
77214;SDS011;66210;53.282;9.864;2023-03-19T03:47:58;3.13;;;1.63;;
77214;SDS011;66210;53.282;9.864;2023-03-19T03:50:25;1.85;;;1.30;;
77214;SDS011;66210;53.282;9.864;2023-03-19T03:52:52;2.40;;;1.58;;
77214;SDS011;66210;53.282;9.864;2023-03-19T03:55:18;1.92;;;1.55;;
77214;SDS011;66210;53.282;9.864;2023-03-19T03:57:45;2.58;;;1.60;;
77214;SDS011;66210;53.282;9.864;2023-03-19T04:00:12;2.80;;;1.65;;
77214;SDS011;66210;53.282;9.864;2023-03-19T04:02:39;2.35;;;1.75;;
77214;SDS011;66210;53.282;9.864;2023-03-19T04:05:06;1.92;;;1.60;;
77214;SDS011;66210;53.282;9.864;2023-03-19T04:07:33;2.50;;;1.65;;
77214;SDS011;66210;53.282;9.864;2023-03-19T04:10:00;3.55;;;1.60;;
77214;SDS011;66210;53.282;9.864;2023-03-19T04:12:27;2.30;;;1.58;;
77214;SDS011;66210;53.282;9.864;2023-03-19T04:14:53;4.22;;;1.52;;
77214;SDS011;66210;53.282;9.864;2023-03-19T04:17:20;1.90;;;1.50;;
77214;SDS011;66210;53.282;9.864;2023-03-19T04:19:47;4.20;;;1.58;;
77214;SDS011;66210;53.282;9.864;2023-03-19T04:22:14;2.35;;;1.55;;
77214;SDS011;66210;53.282;9.864;2023-03-19T04:24:41;2.10;;;1.60;;
77214;SDS011;66210;53.282;9.864;2023-03-19T04:27:08;2.50;;;1.83;;
77214;SDS011;66210;53.282;9.864;2023-03-19T04:29:34;2.00;;;1.60;;
77214;SDS011;66210;53.282;9.864;2023-03-19T04:32:01;2.60;;;1.70;;
77214;SDS011;66210;53.282;9.864;2023-03-19T04:34:28;2.85;;;1.67;;
77214;SDS011;66210;53.282;9.864;2023-03-19T04:36:56;2.97;;;1.73;;
77214;SDS011;66210;53.282;9.864;2023-03-19T04:39:24;2.25;;;1.70;;
77214;SDS011;66210;53.282;9.864;2023-03-19T04:41:51;3.72;;;2.22;;
77214;SDS011;66210;53.282;9.864;2023-03-19T04:44:17;4.65;;;2.00;;
77214;SDS011;66210;53.282;9.864;2023-03-19T04:46:44;3.60;;;2.10;;
77214;SDS011;66210;53.282;9.864;2023-03-19T04:49:11;3.53;;;1.73;;
77214;SDS011;66210;53.282;9.864;2023-03-19T04:51:38;4.57;;;1.85;;
77214;SDS011;66210;53.282;9.864;2023-03-19T04:54:06;2.72;;;2.00;;
77214;SDS011;66210;53.282;9.864;2023-03-19T04:56:33;3.30;;;2.28;;
77214;SDS011;66210;53.282;9.864;2023-03-19T04:59:00;3.33;;;2.22;;
77214;SDS011;66210;53.282;9.864;2023-03-19T05:01:26;4.03;;;2.60;;
77214;SDS011;66210;53.282;9.864;2023-03-19T05:03:53;4.07;;;2.83;;
77214;SDS011;66210;53.282;9.864;2023-03-19T05:06:20;4.13;;;2.78;;
77214;SDS011;66210;53.282;9.864;2023-03-19T05:08:47;4.95;;;3.20;;
77214;SDS011;66210;53.282;9.864;2023-03-19T05:11:14;4.60;;;3.42;;
77214;SDS011;66210;53.282;9.864;2023-03-19T05:13:40;4.97;;;3.10;;
77214;SDS011;66210;53.282;9.864;2023-03-19T05:16:07;4.82;;;3.45;;
77214;SDS011;66210;53.282;9.864;2023-03-19T05:18:35;5.75;;;3.40;;
77214;SDS011;66210;53.282;9.864;2023-03-19T05:21:01;6.07;;;3.38;;
77214;SDS011;66210;53.282;9.864;2023-03-19T05:23:30;5.47;;;3.13;;
77214;SDS011;66210;53.282;9.864;2023-03-19T05:25:57;4.68;;;3.30;;
77214;SDS011;66210;53.282;9.864;2023-03-19T05:28:26;5.32;;;3.00;;
77214;SDS011;66210;53.282;9.864;2023-03-19T05:30:53;5.03;;;2.92;;
77214;SDS011;66210;53.282;9.864;2023-03-19T05:33:20;5.22;;;3.35;;
77214;SDS011;66210;53.282;9.864;2023-03-19T05:35:48;4.63;;;3.17;;
77214;SDS011;66210;53.282;9.864;2023-03-19T05:38:14;4.15;;;3.25;;
77214;SDS011;66210;53.282;9.864;2023-03-19T05:40:43;6.28;;;4.20;;
77214;SDS011;66210;53.282;9.864;2023-03-19T05:43:10;8.15;;;4.72;;
77214;SDS011;66210;53.282;9.864;2023-03-19T05:45:37;6.43;;;5.15;;
77214;SDS011;66210;53.282;9.864;2023-03-19T05:48:04;7.72;;;5.18;;
77214;SDS011;66210;53.282;9.864;2023-03-19T05:50:31;7.00;;;4.05;;
77214;SDS011;66210;53.282;9.864;2023-03-19T05:52:59;6.63;;;4.40;;
77214;SDS011;66210;53.282;9.864;2023-03-19T05:55:26;5.90;;;3.90;;
77214;SDS011;66210;53.282;9.864;2023-03-19T05:57:52;5.53;;;3.90;;
77214;SDS011;66210;53.282;9.864;2023-03-19T06:00:19;5.18;;;3.50;;
77214;SDS011;66210;53.282;9.864;2023-03-19T06:02:46;7.07;;;3.88;;
77214;SDS011;66210;53.282;9.864;2023-03-19T06:05:12;4.78;;;3.50;;
77214;SDS011;66210;53.282;9.864;2023-03-19T06:07:39;4.97;;;3.17;;
77214;SDS011;66210;53.282;9.864;2023-03-19T06:10:06;4.70;;;3.10;;
77214;SDS011;66210;53.282;9.864;2023-03-19T06:12:33;4.90;;;3.42;;
77214;SDS011;66210;53.282;9.864;2023-03-19T06:15:00;6.78;;;3.60;;
77214;SDS011;66210;53.282;9.864;2023-03-19T06:17:26;4.55;;;3.35;;
77214;SDS011;66210;53.282;9.864;2023-03-19T06:19:53;6.28;;;4.25;;
77214;SDS011;66210;53.282;9.864;2023-03-19T06:22:20;5.28;;;3.60;;
77214;SDS011;66210;53.282;9.864;2023-03-19T06:24:46;6.18;;;4.00;;
77214;SDS011;66210;53.282;9.864;2023-03-19T06:27:13;6.55;;;4.40;;
77214;SDS011;66210;53.282;9.864;2023-03-19T06:29:39;8.93;;;4.70;;
77214;SDS011;66210;53.282;9.864;2023-03-19T06:32:06;9.73;;;5.13;;
77214;SDS011;66210;53.282;9.864;2023-03-19T06:34:33;14.90;;;5.35;;
77214;SDS011;66210;53.282;9.864;2023-03-19T06:36:59;7.07;;;4.57;;
77214;SDS011;66210;53.282;9.864;2023-03-19T06:39:26;9.90;;;5.90;;
77214;SDS011;66210;53.282;9.864;2023-03-19T06:41:53;8.05;;;5.28;;
77214;SDS011;66210;53.282;9.864;2023-03-19T06:44:19;7.95;;;5.63;;
77214;SDS011;66210;53.282;9.864;2023-03-19T06:46:46;9.90;;;5.93;;
77214;SDS011;66210;53.282;9.864;2023-03-19T06:49:12;9.63;;;6.13;;
77214;SDS011;66210;53.282;9.864;2023-03-19T06:51:39;11.48;;;6.03;;
77214;SDS011;66210;53.282;9.864;2023-03-19T06:54:06;9.48;;;5.60;;
77214;SDS011;66210;53.282;9.864;2023-03-19T06:56:33;9.45;;;5.30;;
77214;SDS011;66210;53.282;9.864;2023-03-19T06:58:59;9.30;;;5.60;;
77214;SDS011;66210;53.282;9.864;2023-03-19T07:01:26;8.68;;;5.22;;
77214;SDS011;66210;53.282;9.864;2023-03-19T07:03:53;7.30;;;5.68;;
77214;SDS011;66210;53.282;9.864;2023-03-19T07:06:19;7.07;;;5.22;;
77214;SDS011;66210;53.282;9.864;2023-03-19T07:08:46;7.28;;;4.20;;
77214;SDS011;66210;53.282;9.864;2023-03-19T07:11:12;8.68;;;5.25;;
77214;SDS011;66210;53.282;9.864;2023-03-19T07:13:39;5.90;;;4.90;;
77214;SDS011;66210;53.282;9.864;2023-03-19T07:16:06;8.07;;;5.45;;
77214;SDS011;66210;53.282;9.864;2023-03-19T07:18:33;8.23;;;5.63;;
77214;SDS011;66210;53.282;9.864;2023-03-19T07:21:00;8.65;;;5.18;;
77214;SDS011;66210;53.282;9.864;2023-03-19T07:23:28;9.40;;;5.28;;
77214;SDS011;66210;53.282;9.864;2023-03-19T07:25:54;7.47;;;5.18;;
77214;SDS011;66210;53.282;9.864;2023-03-19T07:28:21;7.28;;;4.88;;
77214;SDS011;66210;53.282;9.864;2023-03-19T07:30:49;8.10;;;5.20;;
77214;SDS011;66210;53.282;9.864;2023-03-19T07:33:18;9.25;;;5.65;;
77214;SDS011;66210;53.282;9.864;2023-03-19T07:35:45;7.63;;;5.07;;
77214;SDS011;66210;53.282;9.864;2023-03-19T07:38:12;9.43;;;4.85;;
77214;SDS011;66210;53.282;9.864;2023-03-19T07:40:38;13.35;;;5.28;;
77214;SDS011;66210;53.282;9.864;2023-03-19T07:43:16;8.18;;;5.30;;
77214;SDS011;66210;53.282;9.864;2023-03-19T07:45:43;9.68;;;5.50;;
77214;SDS011;66210;53.282;9.864;2023-03-19T07:48:10;9.10;;;6.00;;
77214;SDS011;66210;53.282;9.864;2023-03-19T07:50:38;7.45;;;5.28;;
77214;SDS011;66210;53.282;9.864;2023-03-19T07:53:04;8.90;;;6.07;;
77214;SDS011;66210;53.282;9.864;2023-03-19T07:55:31;13.52;;;6.72;;
77214;SDS011;66210;53.282;9.864;2023-03-19T07:57:58;10.50;;;6.50;;
77214;SDS011;66210;53.282;9.864;2023-03-19T08:00:25;8.23;;;6.10;;
77214;SDS011;66210;53.282;9.864;2023-03-19T08:02:52;9.32;;;5.55;;
77214;SDS011;66210;53.282;9.864;2023-03-19T08:05:19;10.63;;;6.65;;
77214;SDS011;66210;53.282;9.864;2023-03-19T08:07:46;11.90;;;7.15;;
77214;SDS011;66210;53.282;9.864;2023-03-19T08:10:14;8.77;;;6.40;;
77214;SDS011;66210;53.282;9.864;2023-03-19T08:12:42;9.75;;;6.25;;
77214;SDS011;66210;53.282;9.864;2023-03-19T08:15:10;10.02;;;6.15;;
77214;SDS011;66210;53.282;9.864;2023-03-19T08:17:37;10.95;;;6.40;;
77214;SDS011;66210;53.282;9.864;2023-03-19T08:20:05;14.52;;;6.95;;
77214;SDS011;66210;53.282;9.864;2023-03-19T08:22:39;9.05;;;5.70;;
77214;SDS011;66210;53.282;9.864;2023-03-19T08:25:07;12.23;;;6.30;;
77214;SDS011;66210;53.282;9.864;2023-03-19T08:27:35;11.00;;;6.18;;
77214;SDS011;66210;53.282;9.864;2023-03-19T08:30:02;14.45;;;6.35;;
77214;SDS011;66210;53.282;9.864;2023-03-19T08:32:30;8.98;;;5.90;;
77214;SDS011;66210;53.282;9.864;2023-03-19T08:34:57;11.13;;;6.32;;
77214;SDS011;66210;53.282;9.864;2023-03-19T08:37:23;10.27;;;5.85;;
77214;SDS011;66210;53.282;9.864;2023-03-19T08:39:50;7.90;;;5.65;;
77214;SDS011;66210;53.282;9.864;2023-03-19T08:42:18;9.75;;;4.97;;
77214;SDS011;66210;53.282;9.864;2023-03-19T08:44:45;9.50;;;5.25;;
77214;SDS011;66210;53.282;9.864;2023-03-19T08:47:12;8.43;;;4.88;;
77214;SDS011;66210;53.282;9.864;2023-03-19T08:49:40;6.43;;;4.65;;
77214;SDS011;66210;53.282;9.864;2023-03-19T08:52:07;8.93;;;4.80;;
77214;SDS011;66210;53.282;9.864;2023-03-19T08:54:34;11.40;;;5.30;;
77214;SDS011;66210;53.282;9.864;2023-03-19T08:57:02;8.15;;;4.78;;
77214;SDS011;66210;53.282;9.864;2023-03-19T08:59:28;7.95;;;5.05;;
77214;SDS011;66210;53.282;9.864;2023-03-19T09:01:59;7.45;;;4.25;;
77214;SDS011;66210;53.282;9.864;2023-03-19T09:04:26;7.00;;;4.30;;
77214;SDS011;66210;53.282;9.864;2023-03-19T09:06:53;7.22;;;4.30;;
77214;SDS011;66210;53.282;9.864;2023-03-19T09:09:20;7.72;;;4.35;;
77214;SDS011;66210;53.282;9.864;2023-03-19T09:11:48;7.57;;;4.65;;
77214;SDS011;66210;53.282;9.864;2023-03-19T09:14:15;11.32;;;4.32;;
77214;SDS011;66210;53.282;9.864;2023-03-19T09:19:11;15.40;;;4.25;;
77214;SDS011;66210;53.282;9.864;2023-03-19T09:21:38;9.48;;;4.75;;
77214;SDS011;66210;53.282;9.864;2023-03-19T09:24:05;7.05;;;4.00;;
77214;SDS011;66210;53.282;9.864;2023-03-19T09:26:32;8.88;;;3.95;;
77214;SDS011;66210;53.282;9.864;2023-03-19T09:29:00;8.15;;;3.65;;
77214;SDS011;66210;53.282;9.864;2023-03-19T09:31:27;9.32;;;4.07;;
77214;SDS011;66210;53.282;9.864;2023-03-19T09:33:55;8.15;;;4.28;;
77214;SDS011;66210;53.282;9.864;2023-03-19T09:36:21;10.82;;;4.30;;
77214;SDS011;66210;53.282;9.864;2023-03-19T09:38:48;5.50;;;3.70;;
77214;SDS011;66210;53.282;9.864;2023-03-19T09:41:19;9.30;;;4.57;;
77214;SDS011;66210;53.282;9.864;2023-03-19T09:46:36;11.25;;;4.85;;
77214;SDS011;66210;53.282;9.864;2023-03-19T09:49:11;8.23;;;4.80;;
77214;SDS011;66210;53.282;9.864;2023-03-19T09:51:47;10.07;;;5.00;;
77214;SDS011;66210;53.282;9.864;2023-03-19T09:54:24;10.38;;;4.65;;
77214;SDS011;66210;53.282;9.864;2023-03-19T09:56:54;7.90;;;4.03;;
77214;SDS011;66210;53.282;9.864;2023-03-19T09:59:22;11.48;;;4.10;;
77214;SDS011;66210;53.282;9.864;2023-03-19T10:04:38;10.30;;;4.13;;
77214;SDS011;66210;53.282;9.864;2023-03-19T10:07:18;8.35;;;3.97;;
77214;SDS011;66210;53.282;9.864;2023-03-19T10:12:59;7.40;;;4.00;;
77214;SDS011;66210;53.282;9.864;2023-03-19T10:15:46;7.10;;;3.85;;
77214;SDS011;66210;53.282;9.864;2023-03-19T10:18:20;5.65;;;3.60;;
77214;SDS011;66210;53.282;9.864;2023-03-19T10:26:19;6.43;;;3.15;;
77214;SDS011;66210;53.282;9.864;2023-03-19T10:28:51;5.20;;;2.92;;
77214;SDS011;66210;53.282;9.864;2023-03-19T10:31:26;8.15;;;2.92;;
77214;SDS011;66210;53.282;9.864;2023-03-19T10:34:07;8.88;;;3.20;;
77214;SDS011;66210;53.282;9.864;2023-03-19T10:36:52;3.85;;;2.50;;
77214;SDS011;66210;53.282;9.864;2023-03-19T10:39:25;6.07;;;3.05;;
77214;SDS011;66210;53.282;9.864;2023-03-19T10:41:57;3.88;;;2.28;;
77214;SDS011;66210;53.282;9.864;2023-03-19T10:44:34;4.63;;;2.80;;
77214;SDS011;66210;53.282;9.864;2023-03-19T10:47:09;4.20;;;2.35;;
77214;SDS011;66210;53.282;9.864;2023-03-19T10:49:37;3.80;;;2.05;;
77214;SDS011;66210;53.282;9.864;2023-03-19T10:52:04;6.47;;;2.38;;
77214;SDS011;66210;53.282;9.864;2023-03-19T10:54:32;3.58;;;2.20;;
77214;SDS011;66210;53.282;9.864;2023-03-19T10:56:59;4.72;;;1.85;;
77214;SDS011;66210;53.282;9.864;2023-03-19T11:01:57;3.17;;;1.80;;
77214;SDS011;66210;53.282;9.864;2023-03-19T11:04:27;3.75;;;2.10;;
77214;SDS011;66210;53.282;9.864;2023-03-19T11:06:55;5.50;;;1.92;;
77214;SDS011;66210;53.282;9.864;2023-03-19T11:12:05;4.05;;;2.25;;
77214;SDS011;66210;53.282;9.864;2023-03-19T11:14:47;4.93;;;2.08;;
77214;SDS011;66210;53.282;9.864;2023-03-19T11:19:51;4.85;;;2.00;;
77214;SDS011;66210;53.282;9.864;2023-03-19T11:22:27;6.53;;;2.85;;
77214;SDS011;66210;53.282;9.864;2023-03-19T11:27:56;6.80;;;2.10;;
77214;SDS011;66210;53.282;9.864;2023-03-19T11:30:24;4.38;;;1.92;;
77214;SDS011;66210;53.282;9.864;2023-03-19T11:33:00;4.28;;;2.13;;
77214;SDS011;66210;53.282;9.864;2023-03-19T11:35:33;6.38;;;2.28;;
77214;SDS011;66210;53.282;9.864;2023-03-19T11:38:05;3.70;;;2.00;;
77214;SDS011;66210;53.282;9.864;2023-03-19T11:40:46;5.13;;;1.70;;
77214;SDS011;66210;53.282;9.864;2023-03-19T11:49:09;4.07;;;1.65;;
77214;SDS011;66210;53.282;9.864;2023-03-19T11:51:58;5.10;;;2.15;;
77214;SDS011;66210;53.282;9.864;2023-03-19T11:54:54;4.20;;;1.95;;
77214;SDS011;66210;53.282;9.864;2023-03-19T12:00:45;3.58;;;1.60;;
77214;SDS011;66210;53.282;9.864;2023-03-19T12:09:28;5.10;;;2.33;;
77214;SDS011;66210;53.282;9.864;2023-03-19T12:12:02;4.43;;;2.17;;
77214;SDS011;66210;53.282;9.864;2023-03-19T12:14:47;4.68;;;2.20;;
77214;SDS011;66210;53.282;9.864;2023-03-19T12:17:37;7.82;;;2.38;;
77214;SDS011;66210;53.282;9.864;2023-03-19T12:20:33;6.57;;;2.63;;
77214;SDS011;66210;53.282;9.864;2023-03-19T12:23:06;4.55;;;2.17;;
77214;SDS011;66210;53.282;9.864;2023-03-19T12:25:54;6.78;;;2.05;;
77214;SDS011;66210;53.282;9.864;2023-03-19T12:28:48;5.78;;;2.72;;
77214;SDS011;66210;53.282;9.864;2023-03-19T12:31:29;4.28;;;1.98;;
77214;SDS011;66210;53.282;9.864;2023-03-19T12:36:44;3.75;;;2.20;;
77214;SDS011;66210;53.282;9.864;2023-03-19T12:39:34;4.90;;;2.15;;
77214;SDS011;66210;53.282;9.864;2023-03-19T12:42:06;4.05;;;2.10;;
77214;SDS011;66210;53.282;9.864;2023-03-19T12:44:39;3.67;;;2.10;;
77214;SDS011;66210;53.282;9.864;2023-03-19T12:47:13;5.82;;;2.70;;
77214;SDS011;66210;53.282;9.864;2023-03-19T12:49:47;6.20;;;2.13;;
77214;SDS011;66210;53.282;9.864;2023-03-19T12:54:54;4.40;;;2.08;;
77214;SDS011;66210;53.282;9.864;2023-03-19T12:57:31;3.63;;;2.25;;
77214;SDS011;66210;53.282;9.864;2023-03-19T13:05:31;3.78;;;2.22;;
77214;SDS011;66210;53.282;9.864;2023-03-19T13:08:19;4.88;;;2.15;;
77214;SDS011;66210;53.282;9.864;2023-03-19T13:10:52;5.38;;;2.20;;
77214;SDS011;66210;53.282;9.864;2023-03-19T13:15:58;4.45;;;2.10;;
77214;SDS011;66210;53.282;9.864;2023-03-19T13:21:51;5.07;;;2.00;;
77214;SDS011;66210;53.282;9.864;2023-03-19T13:26:51;2.92;;;2.10;;
77214;SDS011;66210;53.282;9.864;2023-03-19T13:29:24;5.63;;;2.42;;
77214;SDS011;66210;53.282;9.864;2023-03-19T13:32:00;2.92;;;1.98;;
77214;SDS011;66210;53.282;9.864;2023-03-19T13:34:36;5.13;;;2.35;;
77214;SDS011;66210;53.282;9.864;2023-03-19T13:37:11;7.05;;;2.67;;
77214;SDS011;66210;53.282;9.864;2023-03-19T13:39:41;5.80;;;2.65;;
77214;SDS011;66210;53.282;9.864;2023-03-19T13:44:50;8.00;;;3.50;;
77214;SDS011;66210;53.282;9.864;2023-03-19T13:52:45;6.82;;;3.47;;
77214;SDS011;66210;53.282;9.864;2023-03-19T14:01:33;4.68;;;2.80;;
77214;SDS011;66210;53.282;9.864;2023-03-19T14:04:06;4.43;;;2.92;;
77214;SDS011;66210;53.282;9.864;2023-03-19T14:06:44;4.97;;;2.95;;
77214;SDS011;66210;53.282;9.864;2023-03-19T14:12:19;4.35;;;2.58;;
77214;SDS011;66210;53.282;9.864;2023-03-19T14:14:49;3.17;;;2.42;;
77214;SDS011;66210;53.282;9.864;2023-03-19T14:17:21;5.07;;;2.55;;
77214;SDS011;66210;53.282;9.864;2023-03-19T14:19:51;4.32;;;2.75;;
77214;SDS011;66210;53.282;9.864;2023-03-19T14:25:18;3.53;;;2.60;;
77214;SDS011;66210;53.282;9.864;2023-03-19T14:27:47;4.13;;;3.28;;
77214;SDS011;66210;53.282;9.864;2023-03-19T14:32:58;6.63;;;3.47;;
77214;SDS011;66210;53.282;9.864;2023-03-19T14:35:28;5.70;;;4.20;;
77214;SDS011;66210;53.282;9.864;2023-03-19T14:37:59;6.65;;;4.38;;
77214;SDS011;66210;53.282;9.864;2023-03-19T14:40:31;8.00;;;5.35;;
77214;SDS011;66210;53.282;9.864;2023-03-19T14:46:00;6.70;;;4.70;;
77214;SDS011;66210;53.282;9.864;2023-03-19T14:51:16;6.70;;;4.40;;
77214;SDS011;66210;53.282;9.864;2023-03-19T14:54:02;6.85;;;4.60;;
77214;SDS011;66210;53.282;9.864;2023-03-19T14:56:37;6.60;;;4.85;;
77214;SDS011;66210;53.282;9.864;2023-03-19T14:59:04;7.85;;;4.13;;
77214;SDS011;66210;53.282;9.864;2023-03-19T15:01:33;5.68;;;3.80;;
77214;SDS011;66210;53.282;9.864;2023-03-19T15:04:07;9.27;;;5.40;;
77214;SDS011;66210;53.282;9.864;2023-03-19T15:06:36;8.45;;;4.60;;
77214;SDS011;66210;53.282;9.864;2023-03-19T15:09:06;8.38;;;4.60;;
77214;SDS011;66210;53.282;9.864;2023-03-19T15:12:12;8.45;;;5.28;;
77214;SDS011;66210;53.282;9.864;2023-03-19T15:18:08;10.13;;;5.22;;
77214;SDS011;66210;53.282;9.864;2023-03-19T15:20:36;13.40;;;6.15;;
77214;SDS011;66210;53.282;9.864;2023-03-19T15:23:08;9.20;;;5.88;;
77214;SDS011;66210;53.282;9.864;2023-03-19T15:25:55;12.48;;;5.93;;
77214;SDS011;66210;53.282;9.864;2023-03-19T15:28:32;11.35;;;6.35;;
77214;SDS011;66210;53.282;9.864;2023-03-19T15:31:11;10.80;;;6.50;;
77214;SDS011;66210;53.282;9.864;2023-03-19T15:33:56;15.10;;;6.82;;
77214;SDS011;66210;53.282;9.864;2023-03-19T15:36:25;13.48;;;7.72;;
77214;SDS011;66210;53.282;9.864;2023-03-19T15:39:03;12.30;;;8.23;;
77214;SDS011;66210;53.282;9.864;2023-03-19T15:41:33;13.85;;;8.98;;
77214;SDS011;66210;53.282;9.864;2023-03-19T15:44:06;12.57;;;8.40;;
77214;SDS011;66210;53.282;9.864;2023-03-19T15:46:42;10.48;;;8.48;;
77214;SDS011;66210;53.282;9.864;2023-03-19T15:49:12;13.05;;;9.52;;
77214;SDS011;66210;53.282;9.864;2023-03-19T15:51:52;11.32;;;8.15;;
77214;SDS011;66210;53.282;9.864;2023-03-19T15:54:24;11.30;;;7.50;;
77214;SDS011;66210;53.282;9.864;2023-03-19T15:56:51;9.55;;;7.20;;
77214;SDS011;66210;53.282;9.864;2023-03-19T15:59:19;10.48;;;7.50;;
77214;SDS011;66210;53.282;9.864;2023-03-19T16:01:50;9.90;;;7.68;;
77214;SDS011;66210;53.282;9.864;2023-03-19T16:04:20;10.07;;;7.18;;
77214;SDS011;66210;53.282;9.864;2023-03-19T16:06:52;8.30;;;6.88;;
77214;SDS011;66210;53.282;9.864;2023-03-19T16:09:23;8.77;;;6.63;;
77214;SDS011;66210;53.282;9.864;2023-03-19T16:11:53;8.35;;;6.80;;
77214;SDS011;66210;53.282;9.864;2023-03-19T16:14:30;11.50;;;6.85;;
77214;SDS011;66210;53.282;9.864;2023-03-19T16:17:01;9.38;;;6.07;;
77214;SDS011;66210;53.282;9.864;2023-03-19T16:19:35;7.82;;;6.13;;
77214;SDS011;66210;53.282;9.864;2023-03-19T16:22:14;10.43;;;6.68;;
77214;SDS011;66210;53.282;9.864;2023-03-19T16:24:43;9.32;;;6.60;;
77214;SDS011;66210;53.282;9.864;2023-03-19T16:27:12;9.32;;;5.82;;
77214;SDS011;66210;53.282;9.864;2023-03-19T16:29:43;7.03;;;5.70;;
77214;SDS011;66210;53.282;9.864;2023-03-19T16:34:56;9.40;;;5.40;;
77214;SDS011;66210;53.282;9.864;2023-03-19T16:37:31;6.55;;;5.05;;
77214;SDS011;66210;53.282;9.864;2023-03-19T16:47:40;8.73;;;4.95;;
77214;SDS011;66210;53.282;9.864;2023-03-19T16:50:08;7.13;;;4.60;;
77214;SDS011;66210;53.282;9.864;2023-03-19T16:52:35;5.72;;;4.80;;
77214;SDS011;66210;53.282;9.864;2023-03-19T16:55:04;5.15;;;4.32;;
77214;SDS011;66210;53.282;9.864;2023-03-19T16:57:46;6.68;;;3.58;;